Bal Harbour, Florida
Current Conditions -  °F | °C
As of 9:53 PM on Tuesday 25 Nov 2014 (Local Time) from KOPF Reporting Station
Broken Clouds Broken Clouds  
Wind Chill: 79°   Ceiling: 7000
Heat Index: 83°   Visibility: 10mi
Dew Point: 75°   Wind: 7mph
Humidity: 88%   Direction: 160°SSE
Pressure: 29.98"   Gusts: NA
Location:  25.882°N, 80.1292°W
Report Text: KOPF 260253Z AUTO 16006KT 10SM BKN070 26/24 A2998 RMK AO2 SLP152 T02610239 50005
Loading
Personal Weather Stations






























Interactive Weather Map New forecast layout! Learn more

10-Day Weather Forecast

Advertisements
Track Severe Weather on mobile